createdAt,value
2019-05-07T00:01:19.926Z,5.60
2019-05-07T00:03:52.351Z,3.90
2019-05-07T00:06:23.078Z,5.83
2019-05-07T00:08:52.604Z,4.27
2019-05-07T00:11:22.411Z,5.00
2019-05-07T00:13:52.349Z,4.43
2019-05-07T00:16:22.560Z,5.37
2019-05-07T00:18:52.546Z,5.20
2019-05-07T00:21:23.269Z,5.50
2019-05-07T00:23:53.001Z,6.03
2019-05-07T00:26:22.721Z,5.53
2019-05-07T00:28:52.683Z,5.40
2019-05-07T00:31:23.220Z,5.87
2019-05-07T00:33:54.266Z,5.77
2019-05-07T00:36:32.318Z,5.40
2019-05-07T00:39:13.418Z,5.33
2019-05-07T00:41:48.182Z,4.77
2019-05-07T00:44:17.796Z,5.43
2019-05-07T00:46:47.134Z,6.13
2019-05-07T00:49:16.495Z,5.70
2019-05-07T00:51:45.854Z,4.70
2019-05-07T00:54:15.274Z,5.47
2019-05-07T00:56:44.774Z,5.10
2019-05-07T00:59:14.062Z,5.53
2019-05-07T01:01:43.425Z,4.90
2019-05-07T01:04:12.775Z,4.73
2019-05-07T01:06:42.493Z,4.60
2019-05-07T01:09:12.451Z,4.70
2019-05-07T01:11:42.895Z,4.97
2019-05-07T01:14:12.687Z,5.30
2019-05-07T01:16:42.321Z,4.77
2019-05-07T01:19:12.591Z,5.37
2019-05-07T01:21:43.286Z,6.60
2019-05-07T01:24:12.832Z,5.50
2019-05-07T01:26:42.682Z,5.37
2019-05-07T01:29:32.826Z,5.60
2019-05-07T01:32:15.954Z,5.40
2019-05-07T01:34:52.458Z,5.10
2019-05-07T01:37:23.110Z,5.20
2019-05-07T01:39:53.037Z,4.97
2019-05-07T01:42:22.497Z,5.17
2019-05-07T01:44:52.851Z,5.20
2019-05-07T01:47:23.724Z,5.10
2019-05-07T01:49:55.118Z,4.70
2019-05-07T01:52:24.371Z,5.57
2019-05-07T01:54:53.678Z,5.30
2019-05-07T01:57:23.269Z,5.10
2019-05-07T01:59:52.965Z,6.37
2019-05-07T02:02:42.546Z,5.87
2019-05-07T02:05:24.347Z,5.87
2019-05-07T02:07:58.402Z,5.90
2019-05-07T02:10:45.345Z,5.63
2019-05-07T02:13:14.626Z,5.57
2019-05-07T02:15:57.357Z,6.00
2019-05-07T02:18:15.126Z,5.67
2019-05-07T02:20:44.458Z,5.10
2019-05-07T02:23:13.786Z,5.53
2019-05-07T02:25:43.155Z,5.23
2019-05-07T02:28:12.876Z,5.47
2019-05-07T02:30:44.532Z,5.47
2019-05-07T02:33:13.943Z,5.53
2019-05-07T02:35:43.998Z,5.87
2019-05-07T02:38:26.301Z,5.37
2019-05-07T02:41:04.958Z,5.07
2019-05-07T02:43:34.266Z,5.63
2019-05-07T02:46:30.990Z,5.37
2019-05-07T02:49:05.577Z,5.57
2019-05-07T02:51:43.511Z,6.60
2019-05-07T02:54:26.298Z,5.40
2019-05-07T02:56:55.748Z,5.80
2019-05-07T02:59:25.444Z,5.27
2019-05-07T03:01:54.823Z,5.77
2019-05-07T03:04:24.984Z,5.67
2019-05-07T03:06:54.731Z,6.40
2019-05-07T03:09:24.074Z,6.00
2019-05-07T03:11:53.413Z,6.10
2019-05-07T03:14:23.289Z,6.30
2019-05-07T03:16:53.793Z,6.27
2019-05-07T03:19:24.166Z,5.87
2019-05-07T03:21:54.810Z,6.13
2019-05-07T03:24:44.217Z,6.10
2019-05-07T03:27:14.457Z,6.07
2019-05-07T03:29:48.203Z,6.03
2019-05-07T03:32:38.372Z,6.67
2019-05-07T03:35:16.280Z,6.53
2019-05-07T03:37:45.097Z,6.40
2019-05-07T03:40:14.559Z,6.27
2019-05-07T03:42:44.342Z,5.93
2019-05-07T03:45:43.226Z,7.40
2019-05-07T03:48:17.905Z,6.17
2019-05-07T03:50:47.260Z,7.37
2019-05-07T03:53:16.604Z,6.97
2019-05-07T03:55:45.940Z,6.47
2019-05-07T03:58:15.293Z,6.70
2019-05-07T04:00:45.303Z,6.47
2019-05-07T04:03:18.994Z,7.33
2019-05-07T04:05:45.735Z,7.50
2019-05-07T04:08:15.097Z,7.60
2019-05-07T04:10:44.682Z,8.10
2019-05-07T04:13:14.178Z,7.10
2019-05-07T04:15:44.149Z,7.03
2019-05-07T04:18:13.855Z,6.83
2019-05-07T04:20:43.745Z,6.40
2019-05-07T04:23:14.031Z,6.87
2019-05-07T04:26:04.381Z,7.57
2019-05-07T04:28:37.069Z,6.63
2019-05-07T04:31:06.331Z,7.20
2019-05-07T04:33:39.433Z,6.80
2019-05-07T04:36:29.459Z,6.43
2019-05-07T04:38:58.769Z,6.93
2019-05-07T04:41:28.127Z,7.33
2019-05-07T04:43:57.473Z,6.77
2019-05-07T04:46:26.809Z,7.30
2019-05-07T04:48:56.159Z,8.07
2019-05-07T04:51:52.686Z,8.23
2019-05-07T04:54:23.444Z,7.70
2019-05-07T04:56:53.142Z,8.20
2019-05-07T04:59:23.684Z,8.07
2019-05-07T05:02:00.416Z,8.20
2019-05-07T05:04:31.552Z,8.67
2019-05-07T05:07:02.628Z,8.30
2019-05-07T05:09:33.060Z,9.30
2019-05-07T05:12:02.896Z,8.17
2019-05-07T05:14:33.768Z,9.30
2019-05-07T05:17:04.276Z,10.60
2019-05-07T05:19:33.566Z,11.13
2019-05-07T05:22:14.045Z,9.00
2019-05-07T05:24:46.595Z,7.37
2019-05-07T05:27:15.877Z,8.10
2019-05-07T05:29:45.284Z,9.20
2019-05-07T05:32:15.954Z,8.93
2019-05-07T05:34:45.531Z,8.37
2019-05-07T05:37:14.875Z,8.87
2019-05-07T05:39:44.789Z,11.13
2019-05-07T05:42:32.989Z,8.97
2019-05-07T05:45:02.358Z,8.70
2019-05-07T05:47:33.765Z,8.03
2019-05-07T05:50:03.768Z,8.03
2019-05-07T05:52:42.479Z,9.07
2019-05-07T05:55:15.378Z,9.13
2019-05-07T05:57:52.050Z,9.57
2019-05-07T06:00:39.517Z,9.93
2019-05-07T06:03:26.509Z,9.57
2019-05-07T06:06:03.110Z,8.27
2019-05-07T06:08:43.436Z,8.63
2019-05-07T06:11:32.201Z,9.37
2019-05-07T06:14:12.963Z,8.17
2019-05-07T06:16:47.950Z,9.03
2019-05-07T06:19:36.281Z,9.07
2019-05-07T06:22:24.577Z,9.57
2019-05-07T06:25:02.374Z,9.43
2019-05-07T06:27:32.490Z,9.40
2019-05-07T06:30:04.513Z,9.63
2019-05-07T06:32:33.187Z,10.37
2019-05-07T06:35:03.136Z,9.97
2019-05-07T06:37:32.669Z,9.33
2019-05-07T06:40:23.728Z,9.57
2019-05-07T06:43:03.176Z,10.43
2019-05-07T06:45:35.593Z,9.40
2019-05-07T06:48:05.149Z,9.13
2019-05-07T06:50:35.686Z,10.30
2019-05-07T06:53:05.059Z,10.17
2019-05-07T06:55:34.458Z,10.43
2019-05-07T06:58:04.858Z,10.40
2019-05-07T07:00:52.767Z,10.73
2019-05-07T07:03:38.022Z,10.17
2019-05-07T07:06:22.963Z,11.80
2019-05-07T07:09:17.159Z,11.63
2019-05-07T07:11:54.325Z,12.10
2019-05-07T07:14:23.808Z,10.37
2019-05-07T07:16:53.482Z,11.90
2019-05-07T07:19:23.363Z,11.83
2019-05-07T07:21:52.839Z,11.13
2019-05-07T07:24:22.478Z,11.13
2019-05-07T07:26:52.863Z,12.70
2019-05-07T07:29:24.929Z,10.93
2019-05-07T07:31:57.698Z,11.33
2019-05-07T07:34:28.274Z,11.20
2019-05-07T07:37:09.035Z,11.40
2019-05-07T07:39:34.381Z,12.20
2019-05-07T07:42:04.836Z,12.10
2019-05-07T07:44:34.215Z,11.60
2019-05-07T07:47:03.614Z,11.20
2019-05-07T07:49:33.190Z,10.83
2019-05-07T07:52:03.270Z,11.40
2019-05-07T07:54:32.870Z,12.13
2019-05-07T07:57:21.775Z,10.27
2019-05-07T08:00:16.290Z,11.43
2019-05-07T08:02:48.721Z,10.30
2019-05-07T08:05:18.071Z,9.57
2019-05-07T08:07:47.378Z,9.80
2019-05-07T08:10:17.662Z,10.20
2019-05-07T08:12:47.153Z,9.83
2019-05-07T08:15:21.252Z,9.80
2019-05-07T08:17:48.291Z,10.50
2019-05-07T08:20:18.983Z,10.60
2019-05-07T08:22:48.457Z,9.40
2019-05-07T08:25:17.929Z,9.83
2019-05-07T08:27:47.207Z,10.60
2019-05-07T08:30:22.269Z,9.30
2019-05-07T08:33:02.252Z,9.17
2019-05-07T08:35:35.631Z,9.57
2019-05-07T08:38:04.913Z,9.50
2019-05-07T08:40:34.238Z,9.17
2019-05-07T08:43:03.542Z,9.43
2019-05-07T08:46:06.759Z,10.17
2019-05-07T08:48:42.386Z,9.67
2019-05-07T08:51:11.934Z,10.27
2019-05-07T08:53:42.293Z,10.43
2019-05-07T08:56:12.493Z,9.47
2019-05-07T08:58:42.139Z,9.90
2019-05-07T09:01:11.955Z,9.13
2019-05-07T09:03:44.594Z,9.87
2019-05-07T09:06:17.084Z,9.43
2019-05-07T09:08:46.462Z,10.70
2019-05-07T09:11:15.777Z,11.07
2019-05-07T09:13:45.098Z,10.73
2019-05-07T09:16:14.833Z,10.17
2019-05-07T09:18:44.207Z,9.57
2019-05-07T09:21:13.593Z,9.60
2019-05-07T09:23:43.487Z,10.33
2019-05-07T09:26:14.905Z,9.70
2019-05-07T09:29:03.533Z,10.57
2019-05-07T09:31:52.588Z,10.20
2019-05-07T09:34:23.118Z,10.23
2019-05-07T09:36:54.017Z,9.77
2019-05-07T09:39:23.285Z,9.43
2019-05-07T09:41:52.755Z,8.50
2019-05-07T09:44:22.261Z,9.87
2019-05-07T09:46:52.315Z,9.70
2019-05-07T09:49:22.256Z,11.10
2019-05-07T09:51:52.034Z,10.30
2019-05-07T09:54:23.103Z,10.33
2019-05-07T09:56:52.752Z,9.10
2019-05-07T09:59:22.041Z,10.30
2019-05-07T10:01:51.469Z,9.27
2019-05-07T10:04:22.420Z,9.00
2019-05-07T10:06:52.078Z,9.50
2019-05-07T10:09:22.309Z,9.03
2019-05-07T10:12:12.203Z,9.10
2019-05-07T10:14:42.052Z,8.90
2019-05-07T10:17:22.334Z,8.37
2019-05-07T10:19:52.291Z,8.90
2019-05-07T10:22:22.766Z,8.77
2019-05-07T10:24:52.332Z,8.87
2019-05-07T10:27:22.338Z,8.70
2019-05-07T10:29:52.998Z,8.00
2019-05-07T10:32:22.485Z,8.40
2019-05-07T10:34:52.528Z,8.00
2019-05-07T10:37:21.933Z,8.30
2019-05-07T10:39:51.973Z,8.07
2019-05-07T10:42:22.716Z,7.77
2019-05-07T10:45:02.945Z,8.07
2019-05-07T10:47:52.134Z,7.90
2019-05-07T10:50:38.719Z,7.10
2019-05-07T10:53:02.186Z,5.70
2019-05-07T10:55:32.846Z,5.90
2019-05-07T10:58:02.943Z,6.10
2019-05-07T11:00:33.076Z,6.13
2019-05-07T11:03:02.621Z,6.57
2019-05-07T11:05:32.628Z,6.57
2019-05-07T11:08:02.573Z,5.50
2019-05-07T11:10:32.660Z,4.20
2019-05-07T11:13:02.585Z,4.30
2019-05-07T11:15:32.809Z,4.60
2019-05-07T11:18:16.523Z,4.70
2019-05-07T11:20:50.153Z,5.37
2019-05-07T11:23:17.090Z,4.87
2019-05-07T11:25:46.390Z,4.60
2019-05-07T11:28:15.689Z,6.23
2019-05-07T11:30:45.069Z,8.03
2019-05-07T11:33:14.465Z,7.97
2019-05-07T11:35:43.765Z,7.00
2019-05-07T11:38:20.539Z,7.10
2019-05-07T11:40:44.235Z,6.80
2019-05-07T11:43:32.636Z,7.90
2019-05-07T11:46:09.272Z,7.60
2019-05-07T11:48:43.249Z,7.73
2019-05-07T11:51:34.370Z,6.67
2019-05-07T11:54:28.416Z,6.57
2019-05-07T11:56:58.014Z,6.23
2019-05-07T11:59:27.312Z,6.43
2019-05-07T12:02:01.334Z,6.17
2019-05-07T12:04:32.017Z,5.70
2019-05-07T12:07:02.580Z,5.97
2019-05-07T12:09:33.289Z,5.87
2019-05-07T12:12:03.127Z,5.00
2019-05-07T12:14:34.853Z,5.47
2019-05-07T12:17:03.575Z,5.77
2019-05-07T12:19:33.172Z,6.13
2019-05-07T12:22:03.417Z,6.20
2019-05-07T12:24:32.916Z,6.53
2019-05-07T12:27:02.721Z,7.53
2019-05-07T12:29:32.421Z,6.27
2019-05-07T12:32:23.588Z,6.30
2019-05-07T12:35:07.255Z,6.40
2019-05-07T12:37:36.642Z,7.00
2019-05-07T12:40:07.272Z,5.83
2019-05-07T12:42:37.015Z,6.27
2019-05-07T12:45:07.068Z,6.60
2019-05-07T12:47:36.435Z,6.80
2019-05-07T12:50:06.163Z,5.83
2019-05-07T12:52:48.486Z,6.07
2019-05-07T12:55:39.750Z,6.57
2019-05-07T12:58:09.109Z,6.13
2019-05-07T13:01:06.703Z,5.60
2019-05-07T13:03:42.840Z,6.00
2019-05-07T13:06:12.273Z,6.47
2019-05-07T13:08:42.072Z,5.87
2019-05-07T13:11:13.217Z,5.83
2019-05-07T13:13:42.665Z,5.73
2019-05-07T13:16:12.788Z,5.70
2019-05-07T13:18:42.400Z,6.43
2019-05-07T13:21:12.044Z,6.03
2019-05-07T13:23:42.170Z,6.57
2019-05-07T13:26:11.638Z,5.93
2019-05-07T13:28:42.031Z,6.17
2019-05-07T13:31:12.556Z,5.73
2019-05-07T13:33:43.757Z,6.20
2019-05-07T13:36:13.116Z,6.20
2019-05-07T13:39:07.886Z,6.20
2019-05-07T13:41:56.137Z,5.67
2019-05-07T13:44:54.847Z,5.37
2019-05-07T13:47:35.609Z,6.13
2019-05-07T13:50:05.841Z,5.77
2019-05-07T13:52:35.283Z,5.87
2019-05-07T13:55:05.327Z,5.77
2019-05-07T13:57:34.732Z,6.50
2019-05-07T14:00:05.456Z,5.63
2019-05-07T14:02:35.155Z,5.77
2019-05-07T14:05:05.312Z,6.07
2019-05-07T14:07:36.169Z,5.80
2019-05-07T14:10:05.774Z,6.60
2019-05-07T14:12:35.181Z,5.93
2019-05-07T14:15:04.892Z,5.83
2019-05-07T14:17:34.290Z,7.00
2019-05-07T14:20:04.939Z,6.33
2019-05-07T14:22:35.917Z,6.67
2019-05-07T14:25:05.442Z,5.90
2019-05-07T14:27:34.828Z,6.27
2019-05-07T14:30:04.650Z,6.00
2019-05-07T14:32:42.076Z,5.87
2019-05-07T14:35:48.929Z,6.70
2019-05-07T14:38:36.655Z,5.40
2019-05-07T14:41:06.028Z,5.27
2019-05-07T14:43:41.826Z,6.20
2019-05-07T14:46:11.973Z,5.47
2019-05-07T14:48:41.913Z,5.93
2019-05-07T14:51:12.737Z,5.90
2019-05-07T14:53:43.119Z,5.97
2019-05-07T14:56:14.276Z,5.67
2019-05-07T14:58:44.636Z,5.97
2019-05-07T15:01:14.029Z,6.00
2019-05-07T15:03:43.326Z,6.10
2019-05-07T15:06:12.690Z,5.43
2019-05-07T15:08:42.905Z,5.93
2019-05-07T15:11:12.451Z,5.77
2019-05-07T15:13:42.759Z,6.17
2019-05-07T15:16:12.997Z,5.70
2019-05-07T15:18:59.024Z,6.00
2019-05-07T15:21:32.377Z,5.67
2019-05-07T15:24:02.433Z,5.77
2019-05-07T15:26:32.611Z,6.20
2019-05-07T15:29:12.371Z,6.00
2019-05-07T15:32:03.799Z,6.67
2019-05-07T15:34:33.214Z,6.20
2019-05-07T15:37:02.644Z,6.00
2019-05-07T15:39:32.814Z,6.00
2019-05-07T15:42:02.367Z,6.17
2019-05-07T15:44:31.723Z,5.70
2019-05-07T15:47:03.670Z,6.33
2019-05-07T15:49:33.113Z,6.67
2019-05-07T15:52:05.129Z,6.27
2019-05-07T15:54:34.458Z,6.40
2019-05-07T15:57:06.119Z,6.17
2019-05-07T15:59:35.506Z,6.00
2019-05-07T16:02:15.087Z,6.53
2019-05-07T16:04:44.733Z,5.63
2019-05-07T16:07:17.154Z,6.30
2019-05-07T16:09:46.730Z,6.47
2019-05-07T16:12:17.641Z,6.10
2019-05-07T16:14:47.021Z,6.27
2019-05-07T16:17:35.286Z,5.40
2019-05-07T16:20:05.096Z,6.23
2019-05-07T16:22:38.557Z,6.57
2019-05-07T16:25:09.290Z,5.70
2019-05-07T16:27:44.787Z,5.70
2019-05-07T16:30:14.660Z,5.23
2019-05-07T16:32:43.964Z,5.27
2019-05-07T16:35:16.075Z,4.77
2019-05-07T16:37:44.544Z,5.10
2019-05-07T16:40:14.934Z,4.90
2019-05-07T16:43:03.305Z,5.30
2019-05-07T16:45:34.822Z,5.30
2019-05-07T16:48:04.186Z,4.43
2019-05-07T16:50:33.540Z,5.90
2019-05-07T16:53:03.017Z,5.77
2019-05-07T16:55:37.039Z,5.97
2019-05-07T16:58:24.029Z,5.10
2019-05-07T17:00:59.929Z,7.20
2019-05-07T17:03:35.133Z,7.10
2019-05-07T17:06:04.506Z,5.80
2019-05-07T17:08:58.701Z,6.03
2019-05-07T17:11:28.034Z,6.50
2019-05-07T17:13:57.337Z,6.23
2019-05-07T17:16:26.841Z,5.83
2019-05-07T17:18:59.335Z,6.00
2019-05-07T17:21:32.510Z,5.97
2019-05-07T17:24:02.696Z,6.03
2019-05-07T17:26:32.472Z,8.10
2019-05-07T17:29:02.607Z,10.83
2019-05-07T17:31:32.265Z,6.47
2019-05-07T17:34:02.230Z,6.23
2019-05-07T17:36:33.112Z,6.13
2019-05-07T17:39:06.427Z,6.53
2019-05-07T17:41:36.014Z,6.13
2019-05-07T17:44:05.626Z,5.87
2019-05-07T17:46:35.230Z,6.20
2019-05-07T17:49:04.552Z,7.27
2019-05-07T17:51:52.947Z,6.20
2019-05-07T17:54:22.542Z,5.93
2019-05-07T17:56:52.751Z,8.10
2019-05-07T17:59:22.176Z,6.77
2019-05-07T18:02:13.294Z,6.60
2019-05-07T18:04:51.132Z,6.73
2019-05-07T18:07:17.677Z,5.73
2019-05-07T18:09:47.036Z,6.73
2019-05-07T18:12:16.434Z,5.53
2019-05-07T18:14:45.793Z,5.80
2019-05-07T18:17:22.056Z,6.17
2019-05-07T18:19:51.485Z,6.57
2019-05-07T18:22:22.134Z,5.93
2019-05-07T18:24:51.602Z,5.87
2019-05-07T18:27:23.692Z,6.20
2019-05-07T18:29:52.986Z,6.63
2019-05-07T18:32:24.458Z,6.30
2019-05-07T18:34:53.777Z,5.87
2019-05-07T18:37:23.130Z,6.70
2019-05-07T18:39:52.415Z,7.23
2019-05-07T18:42:22.296Z,6.40
2019-05-07T18:44:52.446Z,6.80
2019-05-07T18:47:22.462Z,7.50
2019-05-07T18:49:54.785Z,6.50
2019-05-07T18:52:24.124Z,7.47
2019-05-07T18:54:53.456Z,7.67
2019-05-07T18:57:23.525Z,6.83
2019-05-07T18:59:53.302Z,6.47
2019-05-07T19:02:22.725Z,6.73
2019-05-07T19:04:52.113Z,7.83
2019-05-07T19:07:23.026Z,6.97
2019-05-07T19:09:52.546Z,7.70
2019-05-07T19:12:24.701Z,7.77
2019-05-07T19:14:54.062Z,7.10
2019-05-07T19:17:25.679Z,6.73
2019-05-07T19:19:54.749Z,7.37
2019-05-07T19:22:24.057Z,8.27
2019-05-07T19:24:56.517Z,8.17
2019-05-07T19:27:26.922Z,7.07
2019-05-07T19:29:56.208Z,7.43
2019-05-07T19:32:25.491Z,7.83
2019-05-07T19:34:54.830Z,7.73
2019-05-07T19:37:25.346Z,7.60
2019-05-07T19:39:54.634Z,8.20
2019-05-07T19:42:24.069Z,6.83
2019-05-07T19:44:54.107Z,7.53
2019-05-07T19:47:26.558Z,8.07
2019-05-07T19:49:55.877Z,7.83
2019-05-07T19:52:25.455Z,8.53
2019-05-07T19:55:01.209Z,7.57
2019-05-07T19:57:33.011Z,7.43
2019-05-07T20:00:01.662Z,8.00
2019-05-07T20:02:35.997Z,7.80
2019-05-07T20:05:05.499Z,7.77
2019-05-07T20:07:34.773Z,8.63
2019-05-07T20:10:04.233Z,8.03
2019-05-07T20:12:33.759Z,7.27
2019-05-07T20:15:03.500Z,8.27
2019-05-07T20:17:34.100Z,8.47
2019-05-07T20:20:03.472Z,8.77
2019-05-07T20:22:33.288Z,8.63
2019-05-07T20:25:15.238Z,8.97
2019-05-07T20:27:33.952Z,9.07
2019-05-07T20:30:03.314Z,8.50
2019-05-07T20:32:33.032Z,9.37
2019-05-07T20:35:02.797Z,8.30
2019-05-07T20:37:32.976Z,8.57
2019-05-07T20:40:03.004Z,8.23
2019-05-07T20:42:32.917Z,8.10
2019-05-07T20:45:02.971Z,8.63
2019-05-07T20:47:35.551Z,8.13
2019-05-07T20:50:05.590Z,8.07
2019-05-07T20:52:34.997Z,8.63
2019-05-07T20:55:12.898Z,8.30
2019-05-07T20:57:44.371Z,8.10
2019-05-07T21:00:23.307Z,7.90
2019-05-07T21:03:12.493Z,7.30
2019-05-07T21:05:42.515Z,8.27
2019-05-07T21:08:12.013Z,8.13
2019-05-07T21:10:42.613Z,8.30
2019-05-07T21:13:26.819Z,7.53
2019-05-07T21:15:43.285Z,8.63
2019-05-07T21:18:12.838Z,8.07
2019-05-07T21:20:42.436Z,8.27
2019-05-07T21:23:12.391Z,8.60
2019-05-07T21:25:45.748Z,8.87
2019-05-07T21:28:12.995Z,7.80
2019-05-07T21:30:42.792Z,8.40
2019-05-07T21:33:12.196Z,9.20
2019-05-07T21:35:42.897Z,7.93
2019-05-07T21:38:12.775Z,7.97
2019-05-07T21:40:42.827Z,8.17
2019-05-07T21:43:14.178Z,8.17
2019-05-07T21:45:43.569Z,7.97
2019-05-07T21:48:13.770Z,8.07
2019-05-07T21:50:43.212Z,8.43
2019-05-07T21:53:19.297Z,8.37
2019-05-07T21:56:12.279Z,8.57
2019-05-07T21:58:47.478Z,8.57
2019-05-07T22:01:21.963Z,7.93
2019-05-07T22:03:52.606Z,8.43
2019-05-07T22:06:22.658Z,7.97
2019-05-07T22:08:54.686Z,8.40
2019-05-07T22:11:23.324Z,8.20
2019-05-07T22:13:54.742Z,8.20
2019-05-07T22:16:23.702Z,7.90
2019-05-07T22:18:53.331Z,8.13
2019-05-07T22:21:22.726Z,8.10
2019-05-07T22:23:52.307Z,8.30
2019-05-07T22:26:25.528Z,7.63
2019-05-07T22:28:54.096Z,8.23
2019-05-07T22:31:33.504Z,8.50
2019-05-07T22:34:12.833Z,8.17
2019-05-07T22:36:43.127Z,8.30
2019-05-07T22:39:12.755Z,7.83
2019-05-07T22:41:42.575Z,7.53
2019-05-07T22:44:12.336Z,8.17
2019-05-07T22:46:42.293Z,7.70
2019-05-07T22:49:12.245Z,7.97
2019-05-07T22:51:41.978Z,7.77
2019-05-07T22:54:11.831Z,7.70
2019-05-07T22:57:02.861Z,7.70
2019-05-07T22:59:32.783Z,8.27
2019-05-07T23:02:03.066Z,8.17
2019-05-07T23:04:32.704Z,7.27
2019-05-07T23:07:02.319Z,8.20
2019-05-07T23:09:31.680Z,7.57
2019-05-07T23:12:02.154Z,7.90
2019-05-07T23:14:33.050Z,7.37
2019-05-07T23:17:02.420Z,7.83
2019-05-07T23:19:32.721Z,8.13
2019-05-07T23:22:02.874Z,7.13
2019-05-07T23:24:32.353Z,7.50
2019-05-07T23:27:01.938Z,7.53
2019-05-07T23:29:33.021Z,8.43
2019-05-07T23:32:02.249Z,8.40
2019-05-07T23:34:32.608Z,7.17
2019-05-07T23:37:02.615Z,7.50
2019-05-07T23:39:34.091Z,7.57
2019-05-07T23:42:10.097Z,7.03
2019-05-07T23:44:39.427Z,7.43
2019-05-07T23:47:12.181Z,7.43
2019-05-07T23:49:43.016Z,7.13
2019-05-07T23:52:12.982Z,7.03
2019-05-07T23:54:42.694Z,7.43
2019-05-07T23:57:14.908Z,7.33
2019-05-07T23:59:43.110Z,7.03
